MSR703 HECA-LIMC
Flight info
| Callsign | MSR703 |
|---|---|
| Flight time | N/A |
| Altitude | 40000 |
| Route | CVO L617 TANSA UL613 KOR UL53 IXONI DCT OLGAT DCT PES DCT TUFTE DCT LOMED DCT BEROK DCT MIVKI DCT GOLAS DCT MEBUR |
| Aircraft | A333/H-SDE3GHIJ2J3J5M1RVWXY/LB2D1 |
Departure
| Time | N/A |
|---|---|
| Airport | Cairo International Airport (HECA) |
Arrival
| Time | 2026-05-04 13:38 |
|---|---|
| Airport | Milan Malpensa International Airport (LIMC) |
| Time | Latitude | Longitude | Altitude | Speed | Heading |
|---|---|---|---|---|---|
| 2026-05-04 12:25 | 41.44708 | 16.45290 | 41126 ft | 446 kts | 301° |
| 2026-05-04 12:25 | 41.46311 | 16.41746 | 41128 ft | 446 kts | 301° |
| 2026-05-04 12:25 | 41.49511 | 16.34659 | 41111 ft | 446 kts | 301° |
| 2026-05-04 12:26 | 41.52712 | 16.27553 | 41126 ft | 447 kts | 301° |
| 2026-05-04 12:26 | 41.55911 | 16.20435 | 41124 ft | 447 kts | 301° |
| 2026-05-04 12:27 | 41.59102 | 16.13319 | 41121 ft | 447 kts | 301° |
| 2026-05-04 12:27 | 41.62271 | 16.06238 | 41121 ft | 447 kts | 301° |
| 2026-05-04 12:28 | 41.65453 | 15.99108 | 41112 ft | 447 kts | 300° |
| 2026-05-04 12:28 | 41.68627 | 15.91980 | 41125 ft | 447 kts | 300° |
| 2026-05-04 12:29 | 41.71804 | 15.84829 | 41138 ft | 447 kts | 300° |
| 2026-05-04 12:29 | 41.74975 | 15.77674 | 41145 ft | 447 kts | 300° |
| 2026-05-04 12:30 | 41.78137 | 15.70520 | 41147 ft | 447 kts | 300° |
| 2026-05-04 12:30 | 41.81298 | 15.63353 | 41140 ft | 446 kts | 300° |
| 2026-05-04 12:31 | 41.84453 | 15.56183 | 41139 ft | 446 kts | 300° |
| 2026-05-04 12:31 | 41.87602 | 15.49008 | 41133 ft | 446 kts | 300° |
| 2026-05-04 12:32 | 41.92318 | 15.38232 | 41122 ft | 446 kts | 300° |
| 2026-05-04 12:33 | 41.95456 | 15.31038 | 41119 ft | 446 kts | 300° |
| 2026-05-04 12:33 | 41.98589 | 15.23840 | 41118 ft | 445 kts | 300° |
| 2026-05-04 12:34 | 42.01709 | 15.16653 | 41120 ft | 445 kts | 300° |
| 2026-05-04 12:34 | 42.04834 | 15.09437 | 41119 ft | 447 kts | 300° |
| 2026-05-04 12:35 | 42.07958 | 15.02204 | 41108 ft | 447 kts | 300° |
| 2026-05-04 12:35 | 42.11081 | 14.94959 | 41108 ft | 447 kts | 300° |
| 2026-05-04 12:36 | 42.14193 | 14.87720 | 41104 ft | 446 kts | 300° |
| 2026-05-04 12:36 | 42.17294 | 14.80489 | 41105 ft | 445 kts | 299° |
| 2026-05-04 12:37 | 42.20389 | 14.73255 | 41102 ft | 445 kts | 299° |
| 2026-05-04 12:37 | 42.23475 | 14.66022 | 41102 ft | 445 kts | 299° |
| 2026-05-04 12:38 | 42.26560 | 14.58775 | 41103 ft | 445 kts | 299° |
| 2026-05-04 12:38 | 42.29640 | 14.51522 | 41102 ft | 445 kts | 299° |
| 2026-05-04 12:39 | 42.32197 | 14.45487 | 41104 ft | 446 kts | 299° |
| 2026-05-04 12:39 | 42.35280 | 14.38192 | 41102 ft | 447 kts | 299° |
| 2026-05-04 12:40 | 42.38364 | 14.30879 | 41103 ft | 448 kts | 299° |
| 2026-05-04 12:40 | 42.41442 | 14.23560 | 41101 ft | 447 kts | 299° |
| 2026-05-04 12:41 | 42.44449 | 14.16187 | 41102 ft | 447 kts | 296° |
| 2026-05-04 12:41 | 42.47138 | 14.08616 | 41103 ft | 446 kts | 294° |
| 2026-05-04 12:42 | 42.49740 | 14.00979 | 41097 ft | 446 kts | 294° |
| 2026-05-04 12:42 | 42.52357 | 13.93350 | 41098 ft | 446 kts | 295° |
| 2026-05-04 12:43 | 42.54737 | 13.86469 | 41098 ft | 446 kts | 295° |
| 2026-05-04 12:43 | 42.57377 | 13.78852 | 41100 ft | 445 kts | 295° |
| 2026-05-04 12:44 | 42.60003 | 13.71255 | 41104 ft | 445 kts | 295° |
| 2026-05-04 12:44 | 42.62626 | 13.63642 | 41105 ft | 445 kts | 294° |
| 2026-05-04 12:45 | 42.65246 | 13.56013 | 41105 ft | 446 kts | 294° |
| 2026-05-04 12:45 | 42.67927 | 13.48420 | 41102 ft | 446 kts | 298° |
| 2026-05-04 12:46 | 42.71418 | 13.41447 | 41106 ft | 446 kts | 305° |
| 2026-05-04 12:46 | 42.75179 | 13.34714 | 41118 ft | 447 kts | 306° |
| 2026-05-04 12:47 | 42.78994 | 13.28023 | 41118 ft | 447 kts | 306° |
| 2026-05-04 12:47 | 42.82781 | 13.21350 | 41112 ft | 446 kts | 306° |
| 2026-05-04 12:48 | 42.86562 | 13.14644 | 41119 ft | 446 kts | 306° |
| 2026-05-04 12:48 | 42.90339 | 13.07915 | 41118 ft | 448 kts | 306° |
| 2026-05-04 12:49 | 42.94130 | 13.01152 | 41128 ft | 449 kts | 306° |
| 2026-05-04 12:49 | 42.97895 | 12.94414 | 41126 ft | 449 kts | 306° |
| 2026-05-04 12:50 | 43.01680 | 12.87626 | 41135 ft | 449 kts | 306° |
| 2026-05-04 12:50 | 43.05460 | 12.80831 | 41142 ft | 449 kts | 306° |
| 2026-05-04 12:51 | 43.09238 | 12.74026 | 41144 ft | 449 kts | 306° |
| 2026-05-04 12:51 | 43.13000 | 12.67233 | 41162 ft | 448 kts | 305° |
| 2026-05-04 12:52 | 43.16766 | 12.60414 | 41156 ft | 450 kts | 305° |
| 2026-05-04 12:52 | 43.20535 | 12.53577 | 41156 ft | 450 kts | 305° |
| 2026-05-04 12:53 | 43.24304 | 12.46726 | 41153 ft | 450 kts | 305° |
| 2026-05-04 12:53 | 43.28066 | 12.39869 | 41150 ft | 450 kts | 305° |
| 2026-05-04 12:54 | 43.31825 | 12.33003 | 41146 ft | 449 kts | 305° |
| 2026-05-04 12:54 | 43.35572 | 12.26142 | 41144 ft | 449 kts | 305° |
| 2026-05-04 12:55 | 43.39314 | 12.19272 | 41142 ft | 449 kts | 305° |
| 2026-05-04 12:55 | 43.43064 | 12.12374 | 41138 ft | 451 kts | 305° |
| 2026-05-04 12:56 | 43.46815 | 12.05456 | 41138 ft | 451 kts | 305° |
| 2026-05-04 12:56 | 43.50560 | 11.98535 | 41135 ft | 451 kts | 304° |
| 2026-05-04 12:57 | 43.54275 | 11.91650 | 41134 ft | 450 kts | 304° |
| 2026-05-04 12:57 | 43.58007 | 11.84718 | 41130 ft | 450 kts | 304° |
| 2026-05-04 12:58 | 43.61756 | 11.77740 | 41134 ft | 450 kts | 304° |
| 2026-05-04 12:58 | 43.65461 | 11.70827 | 41131 ft | 451 kts | 304° |
| 2026-05-04 12:59 | 43.69213 | 11.63807 | 41115 ft | 451 kts | 304° |
| 2026-05-04 12:59 | 43.72904 | 11.56885 | 41134 ft | 451 kts | 304° |
| 2026-05-04 13:00 | 43.76617 | 11.49906 | 41134 ft | 450 kts | 304° |
| 2026-05-04 13:00 | 43.80325 | 11.42919 | 41138 ft | 450 kts | 304° |
| 2026-05-04 13:01 | 43.84020 | 11.35940 | 41115 ft | 450 kts | 304° |
| 2026-05-04 13:01 | 43.87719 | 11.28938 | 41130 ft | 451 kts | 303° |
| 2026-05-04 13:02 | 43.91435 | 11.21886 | 41105 ft | 453 kts | 303° |
| 2026-05-04 13:02 | 43.95148 | 11.14823 | 41110 ft | 453 kts | 303° |
| 2026-05-04 13:03 | 43.98848 | 11.07768 | 41121 ft | 452 kts | 303° |
| 2026-05-04 13:03 | 44.02264 | 11.00474 | 41154 ft | 449 kts | 294° |
| 2026-05-04 13:04 | 44.04467 | 10.92400 | 41165 ft | 447 kts | 286° |
| 2026-05-04 13:04 | 44.06281 | 10.84125 | 41206 ft | 447 kts | 285° |
| 2026-05-04 13:05 | 44.08018 | 10.75811 | 41194 ft | 447 kts | 285° |
| 2026-05-04 13:05 | 44.09759 | 10.67507 | 41207 ft | 447 kts | 285° |
| 2026-05-04 13:06 | 44.11511 | 10.59208 | 41207 ft | 447 kts | 285° |
| 2026-05-04 13:06 | 44.13264 | 10.50904 | 41214 ft | 447 kts | 285° |
| 2026-05-04 13:06 | 44.14138 | 10.46753 | 41029 ft | 446 kts | 285° |
| 2026-05-04 13:07 | 44.15010 | 10.42606 | 40839 ft | 446 kts | 285° |
| 2026-05-04 13:07 | 44.15878 | 10.38466 | 40680 ft | 445 kts | 285° |
| 2026-05-04 13:07 | 44.16741 | 10.34346 | 40402 ft | 443 kts | 285° |
| 2026-05-04 13:07 | 44.17604 | 10.30225 | 39935 ft | 441 kts | 285° |
| 2026-05-04 13:08 | 44.18458 | 10.26142 | 39464 ft | 437 kts | 285° |
| 2026-05-04 13:08 | 44.19305 | 10.22090 | 39047 ft | 434 kts | 284° |
| 2026-05-04 13:08 | 44.20145 | 10.18065 | 38574 ft | 430 kts | 284° |
| 2026-05-04 13:08 | 44.20971 | 10.14097 | 38106 ft | 426 kts | 284° |
| 2026-05-04 13:09 | 44.21864 | 10.10176 | 37676 ft | 421 kts | 289° |
| 2026-05-04 13:09 | 44.23058 | 10.06467 | 37252 ft | 419 kts | 295° |
| 2026-05-04 13:09 | 44.24566 | 10.03004 | 36829 ft | 416 kts | 300° |
| 2026-05-04 13:09 | 44.26175 | 9.99670 | 36404 ft | 413 kts | 301° |
| 2026-05-04 13:10 | 44.27820 | 9.96405 | 35955 ft | 410 kts | 302° |
| 2026-05-04 13:10 | 44.29476 | 9.93186 | 35491 ft | 407 kts | 302° |
| 2026-05-04 13:10 | 44.31129 | 9.89992 | 35009 ft | 405 kts | 302° |
| 2026-05-04 13:10 | 44.32771 | 9.86813 | 34550 ft | 403 kts | 302° |
| 2026-05-04 13:11 | 44.34405 | 9.83634 | 33912 ft | 404 kts | 302° |
| 2026-05-04 13:11 | 44.36045 | 9.80425 | 33194 ft | 407 kts | 302° |
| 2026-05-04 13:11 | 44.37690 | 9.77196 | 32522 ft | 408 kts | 302° |
| 2026-05-04 13:11 | 44.39338 | 9.73952 | 31826 ft | 411 kts | 302° |
| 2026-05-04 13:12 | 44.40997 | 9.70680 | 31118 ft | 413 kts | 302° |
| 2026-05-04 13:12 | 44.42658 | 9.67400 | 30626 ft | 411 kts | 302° |
| 2026-05-04 13:12 | 44.44380 | 9.64239 | 30361 ft | 404 kts | 309° |
| 2026-05-04 13:12 | 44.46411 | 9.61581 | 30025 ft | 400 kts | 320° |
| 2026-05-04 13:13 | 44.48761 | 9.59464 | 29379 ft | 403 kts | 327° |
| 2026-05-04 13:13 | 44.51232 | 9.57587 | 28695 ft | 405 kts | 329° |
| 2026-05-04 13:13 | 44.53734 | 9.55753 | 28031 ft | 407 kts | 329° |
| 2026-05-04 13:13 | 44.56250 | 9.53921 | 27390 ft | 408 kts | 329° |
| 2026-05-04 13:14 | 44.58769 | 9.52085 | 26747 ft | 409 kts | 329° |
| 2026-05-04 13:14 | 44.61285 | 9.50248 | 26376 ft | 404 kts | 330° |
| 2026-05-04 13:14 | 44.63716 | 9.48473 | 26110 ft | 395 kts | 330° |
| 2026-05-04 13:14 | 44.66137 | 9.46701 | 25673 ft | 392 kts | 329° |
| 2026-05-04 13:15 | 44.68577 | 9.44911 | 25183 ft | 390 kts | 330° |
| 2026-05-04 13:15 | 44.70945 | 9.43173 | 24719 ft | 388 kts | 330° |
| 2026-05-04 13:15 | 44.73340 | 9.41412 | 24256 ft | 387 kts | 330° |
| 2026-05-04 13:15 | 44.75719 | 9.39663 | 23794 ft | 386 kts | 330° |
| 2026-05-04 13:16 | 44.78097 | 9.37913 | 23260 ft | 384 kts | 330° |
| 2026-05-04 13:16 | 44.80471 | 9.36164 | 22619 ft | 385 kts | 330° |
| 2026-05-04 13:16 | 44.82824 | 9.34430 | 21953 ft | 377 kts | 329° |
| 2026-05-04 13:16 | 44.85111 | 9.32744 | 21310 ft | 366 kts | 329° |
| 2026-05-04 13:17 | 44.87333 | 9.31103 | 20691 ft | 356 kts | 329° |
| 2026-05-04 13:17 | 44.89500 | 9.29501 | 20067 ft | 349 kts | 329° |
| 2026-05-04 13:17 | 44.91640 | 9.27917 | 19458 ft | 345 kts | 329° |
| 2026-05-04 13:17 | 44.93759 | 9.26346 | 18937 ft | 343 kts | 329° |
| 2026-05-04 13:18 | 44.95831 | 9.24809 | 18499 ft | 340 kts | 329° |
| 2026-05-04 13:18 | 44.97895 | 9.23277 | 17989 ft | 338 kts | 329° |
| 2026-05-04 13:18 | 44.99988 | 9.21722 | 17519 ft | 336 kts | 329° |
| 2026-05-04 13:18 | 45.02086 | 9.20163 | 17046 ft | 334 kts | 329° |
| 2026-05-04 13:19 | 45.04111 | 9.18655 | 16578 ft | 332 kts | 329° |
| 2026-05-04 13:19 | 45.05491 | 9.17628 | 16257 ft | 331 kts | 329° |
| 2026-05-04 13:19 | 45.08169 | 9.15634 | 15637 ft | 327 kts | 329° |
| 2026-05-04 13:19 | 45.10177 | 9.14138 | 15159 ft | 324 kts | 329° |
| 2026-05-04 13:20 | 45.12161 | 9.12657 | 14708 ft | 322 kts | 329° |
| 2026-05-04 13:20 | 45.14130 | 9.11186 | 14228 ft | 319 kts | 329° |
| 2026-05-04 13:20 | 45.16084 | 9.09726 | 13753 ft | 316 kts | 329° |
| 2026-05-04 13:20 | 45.18024 | 9.08275 | 13260 ft | 315 kts | 329° |
| 2026-05-04 13:21 | 45.19956 | 9.06828 | 12790 ft | 314 kts | 329° |
| 2026-05-04 13:21 | 45.21885 | 9.05383 | 12330 ft | 313 kts | 330° |
| 2026-05-04 13:21 | 45.23804 | 9.03944 | 11863 ft | 312 kts | 330° |
| 2026-05-04 13:21 | 45.25721 | 9.02506 | 11408 ft | 311 kts | 330° |
| 2026-05-04 13:22 | 45.27607 | 9.01090 | 11294 ft | 312 kts | 330° |
| 2026-05-04 13:22 | 45.29546 | 8.99631 | 11207 ft | 311 kts | 330° |
| 2026-05-04 13:22 | 45.31458 | 8.98194 | 11078 ft | 311 kts | 330° |
| 2026-05-04 13:22 | 45.32754 | 8.97219 | 10973 ft | 311 kts | 330° |
| 2026-05-04 13:23 | 45.34667 | 8.95779 | 10853 ft | 311 kts | 330° |
| 2026-05-04 13:23 | 45.36578 | 8.94341 | 10661 ft | 312 kts | 330° |
| 2026-05-04 13:23 | 45.38497 | 8.92891 | 10252 ft | 313 kts | 330° |
| 2026-05-04 13:23 | 45.40417 | 8.91441 | 9840 ft | 311 kts | 330° |
| 2026-05-04 13:24 | 45.42294 | 8.90024 | 9464 ft | 308 kts | 330° |
| 2026-05-04 13:24 | 45.44198 | 8.88586 | 9096 ft | 304 kts | 330° |
| 2026-05-04 13:24 | 45.46029 | 8.87202 | 8725 ft | 300 kts | 330° |
| 2026-05-04 13:25 | 45.49683 | 8.84437 | 8020 ft | 295 kts | 331° |
| 2026-05-04 13:25 | 45.51487 | 8.83068 | 7671 ft | 292 kts | 331° |
| 2026-05-04 13:25 | 45.53272 | 8.81711 | 7576 ft | 291 kts | 331° |
| 2026-05-04 13:25 | 45.55048 | 8.80361 | 7510 ft | 291 kts | 331° |
| 2026-05-04 13:26 | 45.56829 | 8.79006 | 7374 ft | 290 kts | 331° |
| 2026-05-04 13:26 | 45.58606 | 8.77658 | 7246 ft | 290 kts | 331° |
| 2026-05-04 13:26 | 45.60379 | 8.76310 | 7110 ft | 288 kts | 331° |
| 2026-05-04 13:26 | 45.62149 | 8.74963 | 6842 ft | 286 kts | 331° |
| 2026-05-04 13:27 | 45.63861 | 8.73639 | 6700 ft | 275 kts | 330° |
| 2026-05-04 13:27 | 45.65483 | 8.72303 | 6520 ft | 260 kts | 329° |
| 2026-05-04 13:27 | 45.66995 | 8.71028 | 6324 ft | 244 kts | 329° |
| 2026-05-04 13:27 | 45.68404 | 8.69836 | 6196 ft | 227 kts | 328° |
| 2026-05-04 13:28 | 45.69717 | 8.68725 | 6045 ft | 213 kts | 328° |
| 2026-05-04 13:28 | 45.70977 | 8.67656 | 5607 ft | 208 kts | 328° |
| 2026-05-04 13:28 | 45.72213 | 8.66605 | 5069 ft | 206 kts | 327° |
| 2026-05-04 13:28 | 45.73452 | 8.65548 | 4515 ft | 206 kts | 328° |
| 2026-05-04 13:29 | 45.74661 | 8.64522 | 4163 ft | 198 kts | 329° |
| 2026-05-04 13:29 | 45.75846 | 8.63566 | 3950 ft | 189 kts | 335° |
| 2026-05-04 13:29 | 45.77069 | 8.63189 | 3775 ft | 175 kts | 2° |
| 2026-05-04 13:29 | 45.78166 | 8.63705 | 3585 ft | 162 kts | 34° |
| 2026-05-04 13:30 | 45.78875 | 8.64858 | 3397 ft | 152 kts | 64° |
| 2026-05-04 13:30 | 45.79106 | 8.66300 | 3141 ft | 146 kts | 92° |
| 2026-05-04 13:30 | 45.78930 | 8.67729 | 3047 ft | 148 kts | 96° |
| 2026-05-04 13:30 | 45.79374 | 8.69013 | 2954 ft | 150 kts | 29° |
| 2026-05-04 13:31 | 45.80361 | 8.69382 | 2971 ft | 148 kts | 5° |
| 2026-05-04 13:31 | 45.81389 | 8.69526 | 2969 ft | 148 kts | 5° |
| 2026-05-04 13:31 | 45.82366 | 8.70013 | 2975 ft | 151 kts | 32° |
| 2026-05-04 13:31 | 45.82998 | 8.71182 | 2971 ft | 151 kts | 78° |
| 2026-05-04 13:32 | 45.82826 | 8.72587 | 2961 ft | 144 kts | 130° |
| 2026-05-04 13:32 | 45.82014 | 8.73274 | 2971 ft | 136 kts | 175° |
| 2026-05-04 13:32 | 45.81073 | 8.73154 | 2991 ft | 136 kts | 198° |
| 2026-05-04 13:32 | 45.80176 | 8.72743 | 2966 ft | 135 kts | 200° |
| 2026-05-04 13:33 | 45.79279 | 8.72293 | 2963 ft | 137 kts | 201° |
| 2026-05-04 13:33 | 45.78377 | 8.71836 | 2973 ft | 138 kts | 200° |
| 2026-05-04 13:33 | 45.77470 | 8.71379 | 2963 ft | 138 kts | 200° |
| 2026-05-04 13:33 | 45.76563 | 8.70923 | 2995 ft | 138 kts | 200° |
| 2026-05-04 13:34 | 45.75657 | 8.70513 | 2979 ft | 137 kts | 195° |
| 2026-05-04 13:34 | 45.74707 | 8.70326 | 2957 ft | 138 kts | 185° |
| 2026-05-04 13:34 | 45.73770 | 8.70411 | 2925 ft | 132 kts | 174° |
| 2026-05-04 13:34 | 45.72863 | 8.70634 | 2674 ft | 133 kts | 173° |
| 2026-05-04 13:35 | 45.71954 | 8.70881 | 2435 ft | 132 kts | 173° |
| 2026-05-04 13:35 | 45.70175 | 8.71371 | 2062 ft | 131 kts | 170° |
| 2026-05-04 13:35 | 45.69276 | 8.71618 | 1874 ft | 131 kts | 172° |
| 2026-05-04 13:36 | 45.68370 | 8.71800 | 1662 ft | 132 kts | 174° |
| 2026-05-04 13:36 | 45.67485 | 8.72074 | 1555 ft | 130 kts | 166° |
| 2026-05-04 13:36 | 45.66584 | 8.72314 | 1375 ft | 132 kts | 174° |
| 2026-05-04 13:36 | 45.65693 | 8.72607 | 1155 ft | 132 kts | 167° |
| 2026-05-04 13:37 | 45.64791 | 8.72856 | 947 ft | 131 kts | 175° |
| 2026-05-04 13:37 | 45.63915 | 8.73084 | 823 ft | 127 kts | 171° |
| 2026-05-04 13:37 | 45.63045 | 8.73335 | 735 ft | 123 kts | 174° |
| 2026-05-04 13:37 | 45.62581 | 8.73442 | 734 ft | 77 kts | 164° |
| 2026-05-04 13:38 | 45.62343 | 8.73531 | 727 ft | 4 kts | 166° |
| 2026-05-04 13:38 | 45.62284 | 8.73551 | 726 ft | 12 kts | 167° |
| 2026-05-04 13:38 | 45.62180 | 8.73584 | 724 ft | 19 kts | 169° |
| 2026-05-04 13:38 | 45.62034 | 8.73624 | 721 ft | 24 kts | 169° |
| 2026-05-04 13:39 | 45.61859 | 8.73670 | 714 ft | 27 kts | 170° |
| 2026-05-04 13:39 | 45.61682 | 8.73711 | 711 ft | 27 kts | 178° |
| 2026-05-04 13:39 | 45.61578 | 8.73647 | 700 ft | 8 kts | 254° |
| 2026-05-04 13:39 | 45.61583 | 8.73582 | 706 ft | 7 kts | 284° |
| 2026-05-04 13:40 | 45.61605 | 8.73506 | 715 ft | 9 kts | 299° |
| 2026-05-04 13:40 | 45.61635 | 8.73417 | 711 ft | 11 kts | 282° |
| 2026-05-04 13:40 | 45.61623 | 8.73304 | 714 ft | 13 kts | 258° |
| 2026-05-04 13:40 | 45.61567 | 8.73221 | 717 ft | 13 kts | 181° |
| 2026-05-04 13:41 | 45.61462 | 8.73252 | 715 ft | 18 kts | 168° |
| 2026-05-04 13:41 | 45.61335 | 8.73240 | 715 ft | 19 kts | 214° |
| 2026-05-04 13:41 | 45.61214 | 8.73131 | 715 ft | 22 kts | 212° |
| 2026-05-04 13:42 | 45.61090 | 8.72733 | 704 ft | 25 kts | 258° |
| 2026-05-04 13:42 | 45.61104 | 8.72556 | 714 ft | 10 kts | 323° |
| 2026-05-04 13:42 | 45.61162 | 8.72548 | 714 ft | 9 kts | 1° |
| 2026-05-04 13:42 | 45.61236 | 8.72541 | 713 ft | 12 kts | 350° |
| 2026-05-04 13:43 | 45.61326 | 8.72507 | 717 ft | 15 kts | 333° |
| 2026-05-04 13:43 | 45.61391 | 8.72396 | 719 ft | 14 kts | 281° |
| 2026-05-04 13:43 | 45.61381 | 8.72247 | 717 ft | 16 kts | 270° |
| 2026-05-04 13:43 | 45.61455 | 8.72168 | 720 ft | 15 kts | 345° |
| 2026-05-04 13:44 | 45.61471 | 8.72161 | 719 ft | 0 kts | 345° |
| 2026-05-04 13:45 | 45.61474 | 8.72160 | 720 ft | 2 kts | 346° |
| 2026-05-04 13:45 | 45.61496 | 8.72166 | 720 ft | 5 kts | 20° |
| 2026-05-04 13:46 | 45.61519 | 8.72213 | 720 ft | 7 kts | 74° |
| 2026-05-04 13:46 | 45.61522 | 8.72236 | 722 ft | 0 kts | 76° |
| 2026-05-04 13:47 | 45.61491 | 8.72010 | 718 ft | 0 kts | 259° |